Zhangwu, China
Current Conditions -  °F | °C
As of 4:30 AM on Sunday 21 Dec 2014 (Local Time) from ZYTX Reporting Station
Clear Clear  
Wind Chill: -9°   Ceiling: Unl
Heat Index: -9°   Visibility: 4mi
Dew Point: -13°   Wind: 2mph
Humidity: 84%   Direction: 160°SSE
Pressure: 30.27"   Gusts: NA
Location:  42.42°N, 122.53°E
Report Text: ZYTX 202030Z 16001MPS 6000 NSC M23/M25 Q1025 NOSIG
Loading
Personal Weather Stations






























Interactive Weather Map New forecast layout! Learn more

10-Day Weather Forecast

Advertisements
Track Severe Weather on mobile